Upstream stations:
Downstream station:
SHEF ID: BFFO2 Cimarron River near Buffalo, OK
STATION TYPE:
Regulating: Stage = 6.00, Flow = 750
PRECIP STAGE RIV-FLOW BAT-LOAD
in ft cfs volt
Ccp-Rev Ccp-Rev Ccp-Rev Ccp-Rev
(US/Central)
01/20 00:00 0.00 3.27 14 12.65
01/20 01:00 0.00 3.25 13 12.57
01/20 02:00 0.00 3.29 16 12.57
01/20 03:00 0.00 3.29 16 12.49
01/20 04:00 0.00 3.24 12 12.49
01/20 05:00 0.00 3.25 13 12.41
01/20 06:00 0.00 3.21 10 12.41
01/20 07:00 0.00 3.34 20 12.41
01/20 08:00 0.00 3.36 21 12.33
01/20 09:00 0.00 3.10 5 12.41
01/20 10:00 0.00 3.11 5 13.44
01/20 11:00 0.00 3.09 5 13.53
01/20 12:00 0.00 3.09 5 13.60
01/20 13:00 0.00 3.12 6 13.76
01/20 14:00 0.00 3.13 6 13.68
01/20 15:00 0.00 3.13 6 13.44
01/20 16:00 0.00 3.16 8 13.53
01/20 17:00 0.00 3.17 8 13.44
01/20 18:00 0.00 3.17 8 13.37
01/20 19:00 0.00 3.20 10 12.97
01/20 20:00 0.00 3.18 9 12.81
01/20 21:00 0.00 3.18 9 12.73
01/20 22:00 0.00 3.18 9 12.73
01/20 23:00 0.00 3.16 8 12.65